Time;durP1;ratioP1;P1;durP2;ratioP2;P2;SDS_P1;SDS_P2;PMS_P1;PMS_P2;Temp;Humidity;BMP_temperature;BMP_pressure;BME280_temperature;BME280_humidity;BME280_pressure;Samples;Min_cycle;Max_cycle;Signal;HPM_P1;HPM_P2
2021/07/04 00:00:21;;;;;;;15.30;13.77;;;18.40;91.50;;;;;;4973083;28;20034;-78
2021/07/04 00:02:49;;;;;;;16.52;14.93;;;18.40;91.40;;;;;;4973995;28;20030;-78
2021/07/04 00:05:16;;;;;;;15.02;13.55;;;18.40;91.40;;;;;;4991488;28;20065;-79
2021/07/04 00:07:42;;;;;;;15.38;13.90;;;18.40;91.40;;;;;;4991721;28;20031;-79
2021/07/04 00:10:11;;;;;;;15.50;13.85;;;18.50;91.40;;;;;;4990305;28;20155;-79
2021/07/04 00:12:37;;;;;;;15.20;13.60;;;18.50;91.40;;;;;;4973831;28;20026;-78
2021/07/04 00:15:06;;;;;;;14.30;12.95;;;18.50;91.40;;;;;;4988966;28;20069;-78
2021/07/04 00:17:31;;;;;;;15.30;13.73;;;18.50;91.40;;;;;;4991380;28;20117;-78
2021/07/04 00:19:57;;;;;;;14.50;12.80;;;18.50;91.40;;;;;;4973071;28;20121;-77
2021/07/04 00:22:23;;;;;;;12.88;11.60;;;18.60;91.30;;;;;;4990371;28;20038;-78
2021/07/04 00:24:48;;;;;;;16.40;13.60;;;18.60;91.30;;;;;;4989872;28;20116;-78
2021/07/04 00:27:14;;;;;;;15.48;13.88;;;18.60;91.20;;;;;;4989221;28;20038;-79
2021/07/04 00:29:39;;;;;;;14.27;12.88;;;18.60;91.20;;;;;;4973564;28;20069;-77
2021/07/04 00:32:05;;;;;;;13.48;12.18;;;18.60;91.10;;;;;;4990327;28;20437;-77
2021/07/04 00:34:31;;;;;;;12.48;11.10;;;18.70;91.10;;;;;;4973325;28;20054;-77
2021/07/04 00:36:57;;;;;;;14.52;12.80;;;18.70;91.00;;;;;;4990549;28;20386;-78
2021/07/04 00:39:22;;;;;;;13.70;12.35;;;18.80;90.90;;;;;;4957697;28;20034;-77
2021/07/04 00:41:48;;;;;;;14.25;12.82;;;18.70;90.90;;;;;;4973605;28;20037;-78
2021/07/04 00:44:13;;;;;;;15.43;13.93;;;18.70;90.90;;;;;;4972701;28;20135;-78
2021/07/04 00:46:39;;;;;;;14.48;13.07;;;18.60;90.90;;;;;;4973377;28;20034;-78
2021/07/04 00:49:06;;;;;;;16.40;14.80;;;18.50;91.00;;;;;;4988694;28;20038;-76
2021/07/04 00:51:32;;;;;;;15.70;14.30;;;18.50;91.10;;;;;;4957597;28;20402;-77
2021/07/04 00:53:58;;;;;;;16.13;14.60;;;18.30;91.30;;;;;;4989447;28;20035;-78
2021/07/04 00:56:23;;;;;;;16.10;14.50;;;18.20;91.40;;;;;;4989240;28;20035;-79
2021/07/04 00:58:49;;;;;;;16.80;15.13;;;18.20;91.60;;;;;;4989197;28;20038;-80
2021/07/04 01:01:15;;;;;;;15.00;13.60;;;18.20;91.60;;;;;;4972433;28;20121;-80
2021/07/04 01:03:40;;;;;;;17.17;15.48;;;18.30;91.60;;;;;;4989627;28;20052;-80
2021/07/04 01:06:06;;;;;;;17.23;15.60;;;18.30;91.60;;;;;;4988601;28;20030;-80
2021/07/04 01:08:32;;;;;;;17.08;15.20;;;18.30;91.60;;;;;;4989943;28;20038;-81
2021/07/04 01:10:58;;;;;;;17.10;15.40;;;18.20;91.60;;;;;;4990713;28;20034;-81
2021/07/04 01:13:24;;;;;;;17.63;15.82;;;18.20;91.60;;;;;;4972557;28;20030;-79
2021/07/04 01:15:50;;;;;;;18.13;16.23;;;18.20;91.60;;;;;;4989460;28;20048;-80
2021/07/04 01:18:16;;;;;;;21.85;19.75;;;18.10;91.70;;;;;;4988667;28;20045;-81
2021/07/04 01:20:42;;;;;;;22.05;19.65;;;18.10;91.80;;;;;;4957205;28;20034;-79
2021/07/04 01:23:13;;;;;;;21.08;19.08;;;17.90;91.90;;;;;;4990707;28;20105;-79
2021/07/04 01:25:44;;;;;;;21.13;19.13;;;17.90;92.10;;;;;;4994772;28;20061;-79
2021/07/04 01:28:09;;;;;;;20.27;18.27;;;17.90;92.20;;;;;;4976249;28;20033;-79
2021/07/04 01:30:35;;;;;;;21.75;19.45;;;17.90;92.20;;;;;;4976328;28;20035;-79
2021/07/04 01:33:01;;;;;;;22.17;19.83;;;18.00;92.20;;;;;;4976636;28;20030;-81
2021/07/04 01:35:27;;;;;;;22.33;20.13;;;18.00;92.20;;;;;;4975985;28;20477;-80
2021/07/04 01:37:53;;;;;;;25.17;21.48;;;18.00;92.30;;;;;;4994501;28;20023;-81
2021/07/04 01:40:19;;;;;;;26.13;23.48;;;17.90;92.30;;;;;;4975653;28;20112;-81
2021/07/04 01:42:46;;;;;;;24.02;21.52;;;18.00;92.50;;;;;;4995100;28;20462;-79
2021/07/04 01:45:16;;;;;;;24.48;21.85;;;18.00;92.40;;;;;;4980010;28;20034;-79
2021/07/04 01:47:43;;;;;;;21.40;19.20;;;18.00;92.40;;;;;;4997984;28;20050;-81
2021/07/04 01:50:18;;;;;;;22.48;20.25;;;18.00;92.40;;;;;;4979721;28;20041;-82
2021/07/04 01:52:44;;;;;;;22.70;20.42;;;18.00;92.30;;;;;;4993579;28;20018;-82
2021/07/04 01:55:11;;;;;;;21.40;19.00;;;18.00;92.30;;;;;;4975514;28;20386;-82
2021/07/04 01:57:37;;;;;;;21.50;19.38;;;18.00;92.30;;;;;;4992550;28;20033;-82
2021/07/04 02:00:10;;;;;;;22.23;20.02;;;18.00;92.40;;;;;;4992470;28;20443;-82
2021/07/04 02:02:36;;;;;;;;;;;18.00;92.40;;;;;;4993981;28;20034;-82
2021/07/04 02:05:02;;;;;;;18.83;16.98;;;18.00;92.40;;;;;;4976312;28;19913;-82
2021/07/04 02:07:28;;;;;;;18.98;16.20;;;18.00;92.30;;;;;;4975211;28;20019;-80
2021/07/04 02:09:54;;;;;;;16.23;14.70;;;18.10;92.30;;;;;;4975962;28;20041;-81
2021/07/04 02:12:20;;;;;;;17.80;16.13;;;18.20;92.20;;;;;;4975129;28;20031;-81
2021/07/04 02:14:45;;;;;;;17.45;15.65;;;18.30;92.10;;;;;;4991943;28;20061;-80
2021/07/04 02:17:12;;;;;;;18.23;16.45;;;18.30;92.00;;;;;;4993236;28;20471;-80
2021/07/04 02:19:39;;;;;;;18.42;16.58;;;18.40;91.90;;;;;;4976062;28;20035;-80
2021/07/04 02:22:07;;;;;;;18.88;16.27;;;18.40;91.90;;;;;;4993260;28;20470;-81
2021/07/04 02:24:34;;;;;;;17.65;15.95;;;18.40;91.80;;;;;;4992763;28;20030;-81
2021/07/04 02:27:00;;;;;;;19.45;17.65;;;18.40;91.70;;;;;;4992986;28;20057;-81
2021/07/04 02:29:25;;;;;;;18.95;16.88;;;18.40;91.60;;;;;;4992426;28;20027;-81
2021/07/04 02:31:51;;;;;;;18.95;17.08;;;18.40;91.60;;;;;;4976092;28;20038;-81
2021/07/04 02:34:17;;;;;;;17.80;16.10;;;18.30;91.60;;;;;;4974882;28;20060;-81
2021/07/04 02:36:44;;;;;;;17.13;15.50;;;18.30;91.60;;;;;;4975552;28;20114;-82
2021/07/04 02:39:10;;;;;;;18.42;16.52;;;18.30;91.60;;;;;;4975556;28;20027;-82
2021/07/04 02:41:36;;;;;;;19.33;17.42;;;18.30;91.60;;;;;;4974897;28;20049;-82
2021/07/04 02:44:02;;;;;;;17.88;16.13;;;18.30;91.60;;;;;;4975502;28;20398;-82
2021/07/04 02:46:28;;;;;;;17.65;15.95;;;18.20;91.60;;;;;;4974986;28;20467;-82
2021/07/04 02:48:53;;;;;;;18.15;16.33;;;18.20;91.60;;;;;;4959286;28;20030;-81
2021/07/04 02:51:19;;;;;;;16.42;14.70;;;18.20;91.60;;;;;;4974574;28;20466;-82
2021/07/04 02:53:45;;;;;;;16.15;14.55;;;18.10;91.60;;;;;;4975204;28;20466;-82
2021/07/04 02:56:10;;;;;;;19.67;17.80;;;18.10;91.50;;;;;;4992629;28;20113;-82
2021/07/04 02:58:36;;;;;;;19.30;17.48;;;18.00;91.50;;;;;;4974433;28;20647;-82
2021/07/04 03:01:03;;;;;;;16.73;15.13;;;17.90;91.60;;;;;;4974997;28;20486;-82
2021/07/04 03:03:29;;;;;;;16.77;15.18;;;17.90;91.70;;;;;;4992063;28;20065;-82
2021/07/04 03:05:55;;;;;;;17.60;15.93;;;17.90;91.70;;;;;;4975224;28;20034;-82
2021/07/04 03:08:21;;;;;;;17.88;16.00;;;17.90;91.70;;;;;;4974231;28;20398;-81
2021/07/04 03:10:48;;;;;;;16.23;14.63;;;17.90;91.70;;;;;;4958969;28;20037;-82
2021/07/04 03:13:14;;;;;;;16.70;15.02;;;18.00;91.70;;;;;;4974990;28;20030;-81
2021/07/04 03:15:39;;;;;;;17.70;15.90;;;18.00;91.60;;;;;;4974245;28;20053;-82
2021/07/04 03:18:05;;;;;;;17.75;15.90;;;18.00;91.60;;;;;;4991406;28;20038;-82
2021/07/04 03:20:30;;;;;;;20.70;18.63;;;18.00;91.50;;;;;;4990061;28;20061;-82
2021/07/04 03:22:56;;;;;;;20.02;18.13;;;17.90;91.60;;;;;;4974777;28;20080;-81
2021/07/04 03:25:22;;;;;;;21.88;19.70;;;17.90;91.70;;;;;;4990279;28;20125;-81
2021/07/04 03:27:47;;;;;;;22.35;20.15;;;17.90;91.70;;;;;;4991917;28;20494;-82
2021/07/04 03:30:17;;;;;;;23.15;20.67;;;17.80;91.80;;;;;;4974594;28;20394;-82
2021/07/04 03:32:43;;;;;;;21.70;19.50;;;17.80;91.80;;;;;;4973673;28;20273;-81
2021/07/04 03:35:11;;;;;;;22.70;20.42;;;17.80;91.80;;;;;;4958145;28;20050;-81
2021/07/04 03:37:37;;;;;;;21.95;19.67;;;17.90;91.80;;;;;;4990333;28;20386;-81
2021/07/04 03:40:08;;;;;;;19.83;17.92;;;17.90;91.80;;;;;;4974414;28;20030;-81
2021/07/04 03:42:34;;;;;;;20.75;18.75;;;17.90;91.70;;;;;;4989670;28;20038;-81
2021/07/04 03:44:59;;;;;;;21.98;19.85;;;18.00;91.70;;;;;;4973963;28;20045;-81
2021/07/04 03:47:26;;;;;;;20.40;18.30;;;18.00;91.70;;;;;;4957759;28;20056;-80
2021/07/04 03:49:55;;;;;;;22.42;20.13;;;18.00;91.60;;;;;;4974292;28;20030;-81
2021/07/04 03:52:21;;;;;;;24.08;21.67;;;18.00;91.60;;;;;;4991701;28;20342;-80
2021/07/04 03:54:47;;;;;;;23.60;21.20;;;18.10;91.60;;;;;;4973418;28;20042;-81
2021/07/04 03:57:22;;;;;;;22.85;20.52;;;18.10;91.60;;;;;;4974112;28;20425;-80
2021/07/04 03:59:52;;;;;;;27.88;24.98;;;18.10;91.60;;;;;;4973310;28;20065;-80
2021/07/04 04:02:19;;;;;;;27.20;24.30;;;18.10;91.60;;;;;;4974097;28;20030;-81
2021/07/04 04:04:45;;;;;;;27.02;24.13;;;18.00;91.70;;;;;;4990764;28;20036;-81
2021/07/04 04:07:11;;;;;;;25.48;21.88;;;18.10;91.70;;;;;;4957632;28;20052;-81
2021/07/04 04:09:37;;;;;;;24.77;21.67;;;18.10;91.80;;;;;;4973204;28;20030;-81
2021/07/04 04:12:03;;;;;;;20.13;18.15;;;18.20;91.80;;;;;;4991648;28;20073;-81
2021/07/04 04:14:28;;;;;;;22.73;20.35;;;18.20;91.70;;;;;;4973026;28;20399;-81
2021/07/04 04:16:54;;;;;;;23.17;20.80;;;18.30;91.60;;;;;;4957584;28;20093;-81
2021/07/04 04:19:20;;;;;;;22.83;20.55;;;18.40;91.50;;;;;;4990051;28;20495;-81
2021/07/04 04:21:46;;;;;;;27.63;22.13;;;18.50;91.40;;;;;;4973208;28;20030;-81
2021/07/04 04:24:11;;;;;;;26.02;21.05;;;18.50;91.30;;;;;;4973888;28;20080;-81
2021/07/04 04:26:37;;;;;;;24.95;20.40;;;18.60;91.30;;;;;;4956968;28;20023;-81
2021/07/04 04:29:02;;;;;;;25.98;23.10;;;18.60;91.30;;;;;;4989884;28;20481;-81
2021/07/04 04:31:28;;;;;;;24.05;21.45;;;18.70;91.20;;;;;;4989972;28;20042;-81
2021/07/04 04:33:54;;;;;;;25.15;22.42;;;18.80;91.20;;;;;;4989098;28;20050;-81
2021/07/04 04:36:20;;;;;;;24.45;21.27;;;18.80;91.10;;;;;;4973587;28;20051;-81
2021/07/04 04:38:46;;;;;;;31.52;26.55;;;18.90;91.00;;;;;;4972872;28;20061;-81
2021/07/04 04:41:11;;;;;;;28.02;24.98;;;18.90;90.80;;;;;;4989767;28;20034;-82
2021/07/04 04:43:37;;;;;;;25.77;22.95;;;18.90;90.70;;;;;;4972856;28;20026;-82
2021/07/04 04:46:03;;;;;;;23.92;21.15;;;18.80;90.80;;;;;;4973691;28;20590;-82
2021/07/04 04:48:28;;;;;;;25.67;23.00;;;18.80;90.90;;;;;;4973659;28;20034;-82
2021/07/04 04:50:54;;;;;;;25.17;22.52;;;18.80;90.90;;;;;;4972591;28;20022;-83
2021/07/04 04:53:19;;;;;;;26.02;23.23;;;18.90;90.90;;;;;;4973585;28;20027;-82
2021/07/04 04:55:45;;;;;;;23.45;21.02;;;19.10;90.80;;;;;;4972643;28;20034;-83
2021/07/04 04:58:11;;;;;;;24.15;21.65;;;19.20;90.70;;;;;;4977495;28;20041;-83
2021/07/04 05:00:37;;;;;;;25.10;22.42;;;19.30;90.50;;;;;;4976394;28;20045;-82
2021/07/04 05:03:06;;;;;;;28.52;25.58;;;19.40;90.40;;;;;;4994085;28;20038;-83
2021/07/04 05:05:33;;;;;;;24.98;22.35;;;20.10;90.00;;;;;;4978284;28;20038;-83
2021/07/04 05:07:59;;;;;;;23.05;20.75;;;20.50;88.10;;;;;;4994671;28;20030;-82
2021/07/04 05:10:24;;;;;;;22.58;20.42;;;20.70;87.10;;;;;;4977445;28;20027;-83
2021/07/04 05:12:50;;;;;;;21.17;19.08;;;21.20;85.80;;;;;;4960298;28;20037;-83
2021/07/04 05:15:16;;;;;;;20.38;18.30;;;21.70;84.00;;;;;;4976892;28;20031;-83
2021/07/04 05:17:41;;;;;;;19.73;17.83;;;22.20;82.60;;;;;;4993746;28;20049;-83
2021/07/04 05:20:08;;;;;;;17.17;15.55;;;23.00;80.30;;;;;;4961029;28;20065;-83
2021/07/04 05:22:34;;;;;;;16.33;14.82;;;22.90;79.50;;;;;;4994279;28;20027;-82
2021/07/04 05:25:00;;;;;;;16.13;14.57;;;22.40;80.10;;;;;;4960092;28;20936;-82
2021/07/04 05:27:26;;;;;;;15.68;14.27;;;22.00;81.30;;;;;;4960883;28;20125;-82
2021/07/04 05:29:52;;;;;;;14.95;13.55;;;21.60;82.30;;;;;;4993298;28;20403;-83
2021/07/04 05:32:17;;;;;;;17.58;15.77;;;21.30;83.00;;;;;;4976742;28;20130;-82
2021/07/04 05:34:43;;;;;;;17.70;16.10;;;21.30;83.60;;;;;;4975485;28;20050;-83
2021/07/04 05:37:09;;;;;;;16.55;14.95;;;21.20;84.10;;;;;;4992642;28;20042;-82
2021/07/04 05:39:35;;;;;;;16.33;14.75;;;21.00;84.40;;;;;;4977012;28;20089;-83
2021/07/04 05:42:01;;;;;;;20.80;16.30;;;20.90;84.60;;;;;;4975805;28;20121;-83
2021/07/04 05:44:26;;;;;;;27.13;22.65;;;20.70;84.80;;;;;;4992886;28;20030;-82
2021/07/04 05:46:52;;;;;;;28.38;23.92;;;20.70;85.00;;;;;;4975790;28;20049;-82
2021/07/04 05:49:18;;;;;;;29.83;25.52;;;20.50;85.10;;;;;;4976690;28;20497;-82
2021/07/04 05:51:45;;;;;;;31.92;27.38;;;20.50;85.30;;;;;;4975838;28;20363;-82
2021/07/04 05:54:10;;;;;;;31.85;27.52;;;20.40;85.50;;;;;;4960172;28;20034;-82
2021/07/04 05:56:37;;;;;;;33.33;29.45;;;20.40;85.70;;;;;;4992560;28;20026;-82
2021/07/04 05:59:03;;;;;;;29.10;25.67;;;20.30;85.80;;;;;;4975471;28;20037;-83
2021/07/04 06:01:29;;;;;;;29.15;26.00;;;20.30;85.90;;;;;;4976318;28;20038;-85
2021/07/04 06:03:54;;;;;;;31.27;26.30;;;20.40;85.90;;;;;;4975526;28;20026;-83
2021/07/04 06:06:20;;;;;;;35.08;28.25;;;20.40;85.80;;;;;;4992787;28;20031;-82
2021/07/04 06:08:46;;;;;;;32.35;27.60;;;20.50;85.80;;;;;;4975146;28;20034;-82
2021/07/04 06:11:11;;;;;;;34.38;27.98;;;20.50;85.70;;;;;;4975986;28;20057;-82
2021/07/04 06:13:37;;;;;;;35.83;29.05;;;20.60;85.50;;;;;;4992540;28;20378;-82
2021/07/04 06:16:02;;;;;;;38.22;29.83;;;20.60;85.30;;;;;;4959099;28;20046;-83
2021/07/04 06:18:29;;;;;;;36.08;29.00;;;20.60;85.50;;;;;;4960086;28;20034;-83
2021/07/04 06:20:55;;;;;;;35.70;29.20;;;20.70;85.30;;;;;;4975168;28;20027;-83
2021/07/04 06:23:21;;;;;;;36.65;27.77;;;20.90;85.20;;;;;;4975996;28;20038;-83
2021/07/04 06:25:47;;;;;;;38.38;28.90;;;21.20;84.70;;;;;;4992158;28;20458;-82
2021/07/04 06:28:13;;;;;;;35.33;26.42;;;21.60;83.60;;;;;;4992155;28;20085;-83
2021/07/04 06:30:38;;;;;;;32.85;26.08;;;21.60;82.60;;;;;;4975560;28;20031;-82
2021/07/04 06:33:04;;;;;;;33.78;26.58;;;21.70;81.90;;;;;;4958851;28;20387;-82
2021/07/04 06:35:30;;;;;;;32.50;25.98;;;21.70;81.60;;;;;;4992111;28;20109;-83
2021/07/04 06:37:56;;;;;;;34.70;27.63;;;21.70;81.70;;;;;;4975271;28;20363;-83
2021/07/04 06:40:22;;;;;;;34.50;27.05;;;21.70;82.00;;;;;;4975881;28;20026;-83
2021/07/04 06:42:48;;;;;;;33.00;27.52;;;21.60;82.00;;;;;;4993027;28;20034;-83
2021/07/04 06:45:14;;;;;;;34.83;26.85;;;21.60;81.60;;;;;;4994071;28;20038;-84
2021/07/04 06:47:42;;;;;;;34.85;26.23;;;21.60;81.90;;;;;;4975810;28;20058;-83
2021/07/04 06:50:09;;;;;;;30.45;25.40;;;21.50;82.20;;;;;;4974895;28;20019;-83
2021/07/04 06:52:35;;;;;;;31.50;26.15;;;21.40;82.30;;;;;;4992949;28;20031;-83
2021/07/04 06:55:00;;;;;;;24.65;21.50;;;21.30;82.60;;;;;;4974554;28;20038;-83
2021/07/04 06:57:27;;;;;;;33.25;25.70;;;21.40;82.70;;;;;;4975644;28;20038;-83
2021/07/04 07:00:13;;;;;;;29.80;24.67;;;21.40;82.40;;;;;;4992252;28;20027;-81
2021/07/04 07:02:40;;;;;;;34.63;27.48;;;21.50;82.30;;;;;;4975109;28;20470;-84
2021/07/04 07:05:08;;;;;;;32.95;27.48;;;21.80;82.00;;;;;;4991498;28;20038;-84
2021/07/04 07:07:34;;;;;;;33.85;27.92;;;22.00;81.80;;;;;;4975592;28;20014;-83
2021/07/04 07:09:59;;;;;;;34.45;28.08;;;22.10;81.50;;;;;;4975046;28;20030;-85
2021/07/04 07:12:25;;;;;;;34.80;28.02;;;22.10;80.60;;;;;;4975408;28;20034;-84
2021/07/04 07:14:51;;;;;;;32.67;26.98;;;22.10;80.50;;;;;;4991695;28;20045;-84
2021/07/04 07:17:17;;;;;;;34.28;27.92;;;22.20;80.50;;;;;;4974506;28;20645;-83
2021/07/04 07:19:43;;;;;;;30.83;26.95;;;22.40;80.20;;;;;;4990516;28;20681;-84
2021/07/04 07:22:09;;;;;;;29.60;26.23;;;22.60;79.70;;;;;;4990576;28;20030;-83
2021/07/04 07:24:35;;;;;;;33.85;27.80;;;22.90;79.00;;;;;;4975024;28;20038;-82
2021/07/04 07:27:01;;;;;;;32.55;26.17;;;23.10;78.80;;;;;;4974255;28;20061;-83
2021/07/04 07:29:26;;;;;;;31.83;26.02;;;23.20;77.90;;;;;;4975060;28;20109;-85
2021/07/04 07:31:52;;;;;;;31.92;26.95;;;23.30;77.80;;;;;;4991232;28;20117;-84
2021/07/04 07:34:18;;;;;;;28.30;24.48;;;23.30;77.20;;;;;;4973827;28;20145;-84
2021/07/04 07:36:44;;;;;;;28.70;24.48;;;23.20;76.70;;;;;;4974909;28;20462;-84
2021/07/04 07:39:10;;;;;;;29.65;24.85;;;23.10;77.50;;;;;;4990398;28;20037;-85
2021/07/04 07:41:41;;;;;;;28.52;25.40;;;23.00;77.40;;;;;;5107778;27;1288654;-83
2021/07/04 07:44:07;;;;;;;31.95;26.80;;;22.90;77.10;;;;;;5127441;28;20040;-83
2021/07/04 07:46:33;;;;;;;29.00;24.60;;;22.80;77.20;;;;;;5129370;28;20455;-83
2021/07/04 07:48:59;;;;;;;28.77;25.27;;;22.80;78.00;;;;;;5127549;28;20027;-80
2021/07/04 07:51:24;;;;;;;27.55;24.55;;;22.80;78.60;;;;;;5109691;28;20040;-82
2021/07/04 07:53:50;;;;;;;30.63;26.67;;;22.70;78.10;;;;;;5110529;28;20444;-80
2021/07/04 07:56:16;;;;;;;28.85;24.90;;;22.90;78.30;;;;;;5127741;27;20474;-81
2021/07/04 07:58:44;;;;;;;26.75;23.33;;;23.20;78.30;;;;;;5110462;28;20474;-82
2021/07/04 08:01:10;;;;;;;28.83;24.65;;;23.60;77.50;;;;;;5126470;28;20066;-82
2021/07/04 08:03:37;;;;;;;31.35;25.55;;;23.90;76.20;;;;;;5110316;28;20127;-81
2021/07/04 08:06:03;;;;;;;30.00;26.80;;;24.40;76.00;;;;;;5126872;28;20076;-80
2021/07/04 08:08:29;;;;;;;27.88;23.67;;;24.70;72.00;;;;;;5128182;27;20020;-81
2021/07/04 08:10:54;;;;;;;28.55;23.60;;;24.70;72.80;;;;;;5127042;28;20368;-81
2021/07/04 08:13:20;;;;;;;28.58;25.25;;;25.00;72.20;;;;;;5126367;28;20027;-82
2021/07/04 08:15:46;;;;;;;26.92;23.67;;;25.30;72.20;;;;;;5110006;28;20023;-82
2021/07/04 08:18:11;;;;;;;28.95;25.25;;;25.40;71.70;;;;;;5126168;28;20027;-81
2021/07/04 08:20:37;;;;;;;27.30;23.50;;;25.30;71.60;;;;;;5126884;28;20466;-81
2021/07/04 08:23:03;;;;;;;24.73;22.08;;;25.30;71.50;;;;;;5110060;28;20035;-82
2021/07/04 08:25:29;;;;;;;23.70;21.27;;;25.30;71.60;;;;;;5109428;28;20027;-81
2021/07/04 08:27:55;;;;;;;25.35;22.45;;;25.20;71.50;;;;;;5127041;28;20028;-82
2021/07/04 08:30:22;;;;;;;25.42;22.70;;;25.30;71.20;;;;;;5126315;28;20451;-81
2021/07/04 08:32:47;;;;;;;25.48;22.00;;;25.20;71.00;;;;;;5128056;27;20024;-82
2021/07/04 08:35:13;;;;;;;24.83;21.83;;;25.00;71.10;;;;;;5108883;28;20038;-81
2021/07/04 08:37:39;;;;;;;24.73;22.08;;;24.90;71.40;;;;;;5110395;28;20024;-82
2021/07/04 08:40:06;;;;;;;25.70;22.52;;;25.00;71.20;;;;;;5126746;28;20090;-81
2021/07/04 08:42:31;;;;;;;24.35;21.45;;;25.00;71.10;;;;;;5125639;28;20118;-81
2021/07/04 08:44:58;;;;;;;26.08;22.75;;;25.20;70.80;;;;;;5126411;28;20443;-81
2021/07/04 08:47:24;;;;;;;23.70;20.70;;;25.60;69.90;;;;;;5110376;28;20015;-79
2021/07/04 08:49:54;;;;;;;25.90;23.00;;;25.90;69.00;;;;;;5116560;28;20039;-80
2021/07/04 08:52:20;;;;;;;25.52;22.65;;;26.40;68.40;;;;;;5121979;28;20520;-82
2021/07/04 08:54:46;;;;;;;24.80;22.10;;;27.20;67.70;;;;;;5121182;28;20091;-82
2021/07/04 08:57:12;;;;;;;24.77;22.10;;;27.70;65.80;;;;;;5078578;28;20066;-81
2021/07/04 08:59:40;;;;;;;27.75;23.10;;;27.80;65.70;;;;;;5112725;28;20039;-81
2021/07/04 09:02:11;;;;;;;26.60;23.45;;;27.90;64.60;;;;;;5113445;28;20024;-82
2021/07/04 09:04:38;;;;;;;27.38;24.45;;;27.70;64.30;;;;;;5113521;28;20028;-82
2021/07/04 09:07:05;;;;;;;27.02;24.13;;;27.60;65.70;;;;;;5114896;28;20042;-83
2021/07/04 09:09:33;;;;;;;27.48;24.17;;;27.60;65.30;;;;;;5120710;28;20034;-83
2021/07/04 09:12:11;;;;;;;24.90;20.75;;;27.70;63.90;;;;;;5121341;28;20028;-83
2021/07/04 09:14:39;;;;;;;24.92;22.27;;;27.70;63.90;;;;;;5123171;28;20035;-82
2021/07/04 09:17:11;;;;;;;28.40;24.92;;;27.80;63.00;;;;;;5123971;28;20610;-81
2021/07/04 09:19:39;;;;;;;;;;;27.60;63.60;;;;;;5121577;28;20031;-84
2021/07/04 09:22:08;;;;;;;28.88;24.45;;;27.30;64.50;;;;;;5118876;28;20271;-83
2021/07/04 09:24:37;;;;;;;27.23;24.33;;;27.10;65.10;;;;;;5119722;28;20015;-83
2021/07/04 09:27:04;;;;;;;27.83;24.52;;;27.10;64.90;;;;;;5124555;28;20024;-84
2021/07/04 09:29:50;;;;;;;26.02;22.95;;;27.00;64.60;;;;;;5126309;28;20039;-82
2021/07/04 09:32:26;;;;;;;27.67;24.67;;;26.90;65.00;;;;;;5123195;28;20023;-82
2021/07/04 09:35:13;;;;;;;28.88;24.40;;;26.80;65.40;;;;;;5123624;28;20033;-82
2021/07/04 09:37:41;;;;;;;28.92;25.65;;;26.50;65.30;;;;;;5120967;28;20076;-83
2021/07/04 09:40:12;;;;;;;27.73;24.60;;;26.20;65.70;;;;;;5122896;28;20107;-83
2021/07/04 09:42:58;;;;;;;28.85;25.20;;;26.20;66.20;;;;;;5121590;28;20043;-83
2021/07/04 09:45:28;;;;;;;30.20;27.00;;;26.20;66.50;;;;;;5122698;28;20019;-83
2021/07/04 09:47:56;;;;;;;29.75;25.58;;;26.60;66.70;;;;;;5121379;28;20348;-84
2021/07/04 09:50:22;;;;;;;29.55;26.45;;;27.40;65.30;;;;;;5122122;28;20091;-82
2021/07/04 09:53:02;;;;;;;27.25;24.20;;;27.80;64.60;;;;;;5121314;28;20066;-84
2021/07/04 09:55:29;;;;;;;26.15;23.35;;;28.20;62.90;;;;;;5121700;28;20020;-85
2021/07/04 09:58:03;;;;;;;24.73;22.08;;;28.50;62.40;;;;;;5120226;28;20027;-86
2021/07/04 10:00:31;;;;;;;25.77;23.08;;;29.10;62.40;;;;;;5121216;28;20031;-84
2021/07/04 10:03:09;;;;;;;23.08;20.65;;;29.60;60.60;;;;;;5103977;28;20035;-86
2021/07/04 10:05:36;;;;;;;22.02;19.83;;;29.90;60.30;;;;;;5122995;28;20022;-84
2021/07/04 10:08:30;;;;;;;23.02;20.55;;;30.20;58.70;;;;;;5105827;28;20028;-84
2021/07/04 10:11:11;;;;;;;24.90;22.02;;;30.50;57.20;;;;;;5120787;28;20053;-84
2021/07/04 10:13:39;;;;;;;25.38;22.65;;;30.70;58.50;;;;;;5119309;28;20035;-85
2021/07/04 10:16:09;;;;;;;22.27;19.90;;;30.70;56.20;;;;;;5120464;28;20467;-85
2021/07/04 10:18:36;;;;;;;20.75;18.48;;;30.60;56.40;;;;;;5118691;28;20391;-84
2021/07/04 10:21:02;;;;;;;18.65;16.85;;;30.70;57.70;;;;;;5119993;28;20032;-85
2021/07/04 10:23:28;;;;;;;17.90;16.05;;;31.10;58.10;;;;;;5117508;28;20036;-85
2021/07/04 10:25:57;;;;;;;19.92;17.92;;;31.30;53.00;;;;;;5084468;28;20104;-85
2021/07/04 10:28:28;;;;;;;21.40;19.30;;;31.30;53.60;;;;;;5119519;28;20035;-87
2021/07/04 10:30:54;;;;;;;20.52;18.48;;;31.20;55.00;;;;;;5120106;28;20058;-87
2021/07/04 10:33:32;;;;;;;20.48;18.38;;;31.20;54.00;;;;;;5103908;28;20027;-86
2021/07/04 10:36:00;;;;;;;20.00;18.00;;;31.10;54.40;;;;;;5120581;28;20026;-86
2021/07/04 10:38:45;;;;;;;17.85;16.05;;;31.00;54.40;;;;;;5121623;28;20024;-83
2021/07/04 10:41:32;;;;;;;19.50;17.50;;;30.70;53.60;;;;;;5122820;28;20058;-85
2021/07/04 10:44:05;;;;;;;20.67;18.48;;;30.60;54.60;;;;;;5119327;28;20099;-85
2021/07/04 10:46:41;;;;;;;19.92;17.75;;;30.70;54.40;;;;;;5118211;28;20086;-83
2021/07/04 10:49:18;;;;;;;16.85;15.15;;;30.80;54.20;;;;;;5119547;28;20829;-85
2021/07/04 10:52:00;;;;;;;19.25;17.20;;;30.70;54.70;;;;;;5118580;28;20032;-83
2021/07/04 10:54:47;;;;;;;17.50;15.70;;;30.70;55.10;;;;;;5118922;28;20031;-84
2021/07/04 10:57:25;;;;;;;15.77;14.18;;;30.50;51.90;;;;;;5119155;28;20020;-86
2021/07/04 11:00:08;;;;;;;18.35;16.55;;;30.40;53.60;;;;;;5116111;28;20019;-86
2021/07/04 11:02:53;;;;;;;19.15;15.20;;;30.30;54.30;;;;;;5113947;28;20058;-85
2021/07/04 11:05:39;;;;;;;15.75;13.95;;;30.50;53.90;;;;;;5116180;28;20019;-84
2021/07/04 11:08:13;;;;;;;13.63;12.30;;;30.60;54.50;;;;;;5118219;28;20028;-84
2021/07/04 11:10:51;;;;;;;14.80;13.38;;;30.60;52.80;;;;;;5118076;28;20543;-85
2021/07/04 11:13:21;;;;;;;14.45;12.90;;;30.70;52.90;;;;;;5119274;28;20036;-85
2021/07/04 11:15:49;;;;;;;13.48;12.18;;;30.70;52.90;;;;;;5118091;28;20514;-85
2021/07/04 11:18:19;;;;;;;15.10;13.38;;;30.80;52.60;;;;;;5116198;28;20035;-85
2021/07/04 11:20:47;;;;;;;16.40;14.70;;;30.90;53.20;;;;;;5118664;28;20034;-85
2021/07/04 11:23:26;;;;;;;16.27;14.68;;;31.00;51.60;;;;;;5116002;28;20047;-86
2021/07/04 11:26:11;;;;;;;17.20;15.40;;;31.00;53.40;;;;;;5114099;28;20063;-84
2021/07/04 11:28:43;;;;;;;15.38;13.77;;;30.90;51.50;;;;;;5113740;28;20425;-84
2021/07/04 11:31:21;;;;;;;16.50;14.77;;;30.70;50.70;;;;;;5114463;28;20032;-86
2021/07/04 11:33:51;;;;;;;16.52;14.77;;;30.50;50.60;;;;;;5115613;28;20030;-85
2021/07/04 11:36:17;;;;;;;16.98;15.20;;;29.80;51.00;;;;;;5099213;28;20074;-87
2021/07/04 11:38:48;;;;;;;14.10;12.70;;;29.30;52.40;;;;;;5116365;28;20020;-86
2021/07/04 11:41:37;;;;;;;15.23;13.65;;;29.20;54.80;;;;;;5116322;28;20063;-85
2021/07/04 11:44:11;;;;;;;14.77;13.27;;;29.20;55.20;;;;;;5117326;28;20030;-86
2021/07/04 11:46:40;;;;;;;19.90;14.40;;;29.10;55.10;;;;;;5117804;28;20092;-85
2021/07/04 11:49:14;;;;;;;15.45;13.82;;;29.10;55.80;;;;;;5118157;28;20030;-86
2021/07/04 11:51:53;;;;;;;16.83;15.02;;;29.00;56.00;;;;;;5115317;28;20032;-86
2021/07/04 11:54:21;;;;;;;15.70;14.05;;;28.80;56.00;;;;;;5118127;28;20023;-86
2021/07/04 11:56:53;;;;;;;18.40;15.50;;;28.70;56.10;;;;;;5114290;28;20043;-87
2021/07/04 11:59:23;;;;;;;17.03;14.30;;;28.70;56.10;;;;;;5113838;28;20020;-86
2021/07/04 12:01:52;;;;;;;15.70;14.10;;;28.60;56.40;;;;;;5112294;28;20039;-87
2021/07/04 12:04:27;;;;;;;16.40;14.70;;;28.60;56.50;;;;;;5112721;28;20066;-86
2021/07/04 12:07:14;;;;;;;17.20;13.48;;;28.60;56.50;;;;;;5111794;28;20488;-87
2021/07/04 12:09:46;;;;;;;12.50;11.25;;;28.40;57.10;;;;;;5112662;28;20028;-85
2021/07/04 12:12:27;;;;;;;15.32;13.73;;;28.20;57.60;;;;;;5113032;28;20022;-86
2021/07/04 12:14:57;;;;;;;13.95;12.55;;;28.10;57.40;;;;;;5113863;28;20055;-88
2021/07/04 12:17:36;;;;;;;13.43;11.52;;;28.00;57.50;;;;;;5115590;28;20083;-86
2021/07/04 12:20:10;;;;;;;14.15;12.52;;;27.90;57.80;;;;;;5114288;28;20076;-86
2021/07/04 12:23:05;;;;;;;13.18;11.45;;;27.80;57.30;;;;;;5115336;28;20035;-86
2021/07/04 12:25:41;;;;;;;12.85;10.95;;;27.60;57.80;;;;;;5108553;28;20074;-86
2021/07/04 12:28:11;;;;;;;14.15;12.65;;;27.30;58.90;;;;;;5116746;28;20444;-86
2021/07/04 12:30:42;;;;;;;15.75;12.77;;;27.10;59.50;;;;;;5116525;28;20072;-87
2021/07/04 12:33:25;;;;;;;13.13;11.30;;;26.80;60.00;;;;;;5117144;28;20080;-84